sensor_id;sensor_type;location;lat;lon;timestamp;P1;durP1;ratioP1;P2;durP2;ratioP2
920;SDS011;447;51.332;6.778;2023-11-21T00:01:03;5.23;;;3.73;;
920;SDS011;447;51.332;6.778;2023-11-21T00:03:31;5.17;;;3.80;;
920;SDS011;447;51.332;6.778;2023-11-21T00:05:58;4.40;;;3.70;;
920;SDS011;447;51.332;6.778;2023-11-21T00:08:24;5.60;;;3.90;;
920;SDS011;447;51.332;6.778;2023-11-21T00:10:50;3.63;;;3.30;;
920;SDS011;447;51.332;6.778;2023-11-21T00:13:19;3.97;;;3.57;;
920;SDS011;447;51.332;6.778;2023-11-21T00:15:46;4.60;;;4.10;;
920;SDS011;447;51.332;6.778;2023-11-21T00:18:12;3.70;;;3.23;;
920;SDS011;447;51.332;6.778;2023-11-21T00:20:39;4.47;;;3.60;;
920;SDS011;447;51.332;6.778;2023-11-21T00:23:07;5.30;;;3.47;;
920;SDS011;447;51.332;6.778;2023-11-21T00:25:35;6.73;;;3.90;;
920;SDS011;447;51.332;6.778;2023-11-21T00:28:03;5.93;;;3.30;;
920;SDS011;447;51.332;6.778;2023-11-21T00:30:31;6.10;;;3.60;;
920;SDS011;447;51.332;6.778;2023-11-21T00:33:01;4.30;;;3.40;;
920;SDS011;447;51.332;6.778;2023-11-21T00:35:27;4.57;;;3.17;;
920;SDS011;447;51.332;6.778;2023-11-21T00:37:53;5.57;;;3.33;;
920;SDS011;447;51.332;6.778;2023-11-21T00:40:21;5.60;;;3.85;;
920;SDS011;447;51.332;6.778;2023-11-21T00:42:47;5.60;;;3.53;;
920;SDS011;447;51.332;6.778;2023-11-21T00:45:14;5.40;;;3.40;;
920;SDS011;447;51.332;6.778;2023-11-21T00:47:40;8.18;;;3.63;;
920;SDS011;447;51.332;6.778;2023-11-21T00:50:06;4.23;;;3.27;;
920;SDS011;447;51.332;6.778;2023-11-21T00:52:33;4.47;;;3.90;;
920;SDS011;447;51.332;6.778;2023-11-21T00:54:58;4.70;;;3.55;;
920;SDS011;447;51.332;6.778;2023-11-21T00:57:26;3.92;;;3.30;;
920;SDS011;447;51.332;6.778;2023-11-21T00:59:52;7.70;;;3.60;;
920;SDS011;447;51.332;6.778;2023-11-21T01:02:20;4.20;;;3.80;;
920;SDS011;447;51.332;6.778;2023-11-21T01:04:50;4.90;;;3.40;;
920;SDS011;447;51.332;6.778;2023-11-21T01:07:20;6.23;;;4.00;;
920;SDS011;447;51.332;6.778;2023-11-21T01:09:48;7.63;;;3.70;;
920;SDS011;447;51.332;6.778;2023-11-21T01:12:14;4.60;;;3.47;;
920;SDS011;447;51.332;6.778;2023-11-21T01:14:42;3.88;;;3.47;;
920;SDS011;447;51.332;6.778;2023-11-21T01:17:12;4.90;;;3.83;;
920;SDS011;447;51.332;6.778;2023-11-21T01:19:40;3.73;;;3.43;;
920;SDS011;447;51.332;6.778;2023-11-21T01:22:06;4.07;;;3.30;;
920;SDS011;447;51.332;6.778;2023-11-21T01:24:32;6.50;;;4.00;;
920;SDS011;447;51.332;6.778;2023-11-21T01:26:58;4.30;;;3.50;;
920;SDS011;447;51.332;6.778;2023-11-21T01:29:26;8.10;;;3.85;;
920;SDS011;447;51.332;6.778;2023-11-21T01:31:55;5.00;;;3.70;;
920;SDS011;447;51.332;6.778;2023-11-21T01:34:23;5.53;;;3.50;;
920;SDS011;447;51.332;6.778;2023-11-21T01:36:49;4.10;;;3.67;;
920;SDS011;447;51.332;6.778;2023-11-21T01:39:15;4.13;;;3.73;;
920;SDS011;447;51.332;6.778;2023-11-21T01:41:42;5.23;;;3.40;;
920;SDS011;447;51.332;6.778;2023-11-21T01:44:09;5.07;;;4.07;;
920;SDS011;447;51.332;6.778;2023-11-21T01:46:40;4.87;;;3.27;;
920;SDS011;447;51.332;6.778;2023-11-21T01:49:07;4.53;;;3.40;;
920;SDS011;447;51.332;6.778;2023-11-21T01:51:35;3.20;;;2.90;;
920;SDS011;447;51.332;6.778;2023-11-21T01:54:02;3.80;;;3.40;;
920;SDS011;447;51.332;6.778;2023-11-21T01:56:30;6.50;;;3.80;;
920;SDS011;447;51.332;6.778;2023-11-21T01:58:57;5.40;;;3.40;;
920;SDS011;447;51.332;6.778;2023-11-21T02:01:23;3.57;;;3.27;;
920;SDS011;447;51.332;6.778;2023-11-21T02:03:54;6.47;;;3.77;;
920;SDS011;447;51.332;6.778;2023-11-21T02:06:21;8.03;;;3.73;;
920;SDS011;447;51.332;6.778;2023-11-21T02:08:47;4.63;;;4.00;;
920;SDS011;447;51.332;6.778;2023-11-21T02:11:18;3.87;;;3.50;;
920;SDS011;447;51.332;6.778;2023-11-21T02:13:47;3.93;;;3.57;;
920;SDS011;447;51.332;6.778;2023-11-21T02:16:17;6.43;;;3.60;;
920;SDS011;447;51.332;6.778;2023-11-21T02:18:43;3.90;;;3.60;;
920;SDS011;447;51.332;6.778;2023-11-21T02:21:09;4.13;;;3.67;;
920;SDS011;447;51.332;6.778;2023-11-21T02:23:35;3.92;;;3.60;;
920;SDS011;447;51.332;6.778;2023-11-21T02:26:07;6.53;;;4.07;;
920;SDS011;447;51.332;6.778;2023-11-21T02:28:35;4.73;;;3.03;;
920;SDS011;447;51.332;6.778;2023-11-21T02:31:04;5.70;;;3.80;;
920;SDS011;447;51.332;6.778;2023-11-21T02:33:31;4.20;;;3.60;;
920;SDS011;447;51.332;6.778;2023-11-21T02:36:01;5.05;;;3.58;;
920;SDS011;447;51.332;6.778;2023-11-21T02:38:27;6.45;;;3.80;;
920;SDS011;447;51.332;6.778;2023-11-21T02:40:54;3.80;;;3.40;;
920;SDS011;447;51.332;6.778;2023-11-21T02:43:24;5.87;;;3.63;;
920;SDS011;447;51.332;6.778;2023-11-21T02:45:50;8.43;;;4.10;;
920;SDS011;447;51.332;6.778;2023-11-21T02:48:16;3.60;;;3.30;;
920;SDS011;447;51.332;6.778;2023-11-21T02:50:42;5.47;;;3.45;;
920;SDS011;447;51.332;6.778;2023-11-21T02:53:08;4.80;;;3.87;;
920;SDS011;447;51.332;6.778;2023-11-21T02:55:36;4.30;;;3.57;;
920;SDS011;447;51.332;6.778;2023-11-21T02:58:02;5.03;;;3.72;;
920;SDS011;447;51.332;6.778;2023-11-21T03:00:31;5.30;;;3.50;;
920;SDS011;447;51.332;6.778;2023-11-21T03:02:59;5.77;;;3.53;;
920;SDS011;447;51.332;6.778;2023-11-21T03:05:25;4.10;;;3.70;;
920;SDS011;447;51.332;6.778;2023-11-21T03:07:55;4.07;;;3.40;;
920;SDS011;447;51.332;6.778;2023-11-21T03:10:24;3.83;;;3.40;;
920;SDS011;447;51.332;6.778;2023-11-21T03:12:51;8.80;;;4.00;;
920;SDS011;447;51.332;6.778;2023-11-21T03:15:17;6.00;;;3.50;;
920;SDS011;447;51.332;6.778;2023-11-21T03:17:43;5.30;;;3.70;;
920;SDS011;447;51.332;6.778;2023-11-21T03:20:09;4.30;;;3.90;;
920;SDS011;447;51.332;6.778;2023-11-21T03:22:36;5.45;;;3.67;;
920;SDS011;447;51.332;6.778;2023-11-21T03:25:04;3.60;;;3.30;;
920;SDS011;447;51.332;6.778;2023-11-21T03:27:30;5.87;;;3.67;;
920;SDS011;447;51.332;6.778;2023-11-21T03:29:56;4.43;;;3.60;;
920;SDS011;447;51.332;6.778;2023-11-21T03:32:22;3.70;;;3.10;;
920;SDS011;447;51.332;6.778;2023-11-21T03:34:55;7.53;;;3.97;;
920;SDS011;447;51.332;6.778;2023-11-21T03:37:23;6.13;;;3.67;;
920;SDS011;447;51.332;6.778;2023-11-21T03:39:50;4.30;;;3.90;;
920;SDS011;447;51.332;6.778;2023-11-21T03:42:16;4.70;;;3.47;;
920;SDS011;447;51.332;6.778;2023-11-21T03:44:44;6.20;;;3.90;;
920;SDS011;447;51.332;6.778;2023-11-21T03:47:13;4.20;;;3.40;;
920;SDS011;447;51.332;6.778;2023-11-21T03:49:39;5.07;;;4.37;;
920;SDS011;447;51.332;6.778;2023-11-21T03:52:05;4.10;;;3.70;;
920;SDS011;447;51.332;6.778;2023-11-21T03:54:33;7.57;;;4.27;;
920;SDS011;447;51.332;6.778;2023-11-21T03:56:59;4.50;;;3.70;;
920;SDS011;447;51.332;6.778;2023-11-21T03:59:26;8.43;;;4.00;;
920;SDS011;447;51.332;6.778;2023-11-21T04:01:52;5.93;;;4.03;;
920;SDS011;447;51.332;6.778;2023-11-21T04:04:20;5.27;;;4.20;;
920;SDS011;447;51.332;6.778;2023-11-21T04:06:46;5.07;;;4.40;;
920;SDS011;447;51.332;6.778;2023-11-21T04:09:15;4.73;;;3.80;;
920;SDS011;447;51.332;6.778;2023-11-21T04:11:42;3.80;;;3.50;;
920;SDS011;447;51.332;6.778;2023-11-21T04:14:08;5.00;;;3.90;;
920;SDS011;447;51.332;6.778;2023-11-21T04:16:35;4.32;;;3.80;;
920;SDS011;447;51.332;6.778;2023-11-21T04:19:03;4.07;;;3.73;;
920;SDS011;447;51.332;6.778;2023-11-21T04:21:29;4.90;;;3.60;;
920;SDS011;447;51.332;6.778;2023-11-21T04:23:58;5.77;;;3.83;;
920;SDS011;447;51.332;6.778;2023-11-21T04:26:24;5.33;;;4.23;;
920;SDS011;447;51.332;6.778;2023-11-21T04:28:54;3.80;;;3.50;;
920;SDS011;447;51.332;6.778;2023-11-21T04:31:20;5.13;;;4.55;;
920;SDS011;447;51.332;6.778;2023-11-21T04:33:48;6.32;;;3.80;;
920;SDS011;447;51.332;6.778;2023-11-21T04:36:16;3.87;;;3.47;;
920;SDS011;447;51.332;6.778;2023-11-21T04:38:42;4.15;;;3.75;;
920;SDS011;447;51.332;6.778;2023-11-21T04:41:08;4.47;;;3.63;;
920;SDS011;447;51.332;6.778;2023-11-21T04:43:37;7.10;;;3.90;;
920;SDS011;447;51.332;6.778;2023-11-21T04:46:03;4.83;;;3.40;;
920;SDS011;447;51.332;6.778;2023-11-21T04:48:33;7.83;;;4.00;;
920;SDS011;447;51.332;6.778;2023-11-21T04:50:59;5.63;;;3.40;;
920;SDS011;447;51.332;6.778;2023-11-21T04:53:28;8.80;;;3.80;;
920;SDS011;447;51.332;6.778;2023-11-21T04:55:57;5.07;;;4.30;;
920;SDS011;447;51.332;6.778;2023-11-21T04:58:24;4.00;;;3.40;;
920;SDS011;447;51.332;6.778;2023-11-21T05:00:50;9.33;;;4.03;;
920;SDS011;447;51.332;6.778;2023-11-21T05:03:16;6.43;;;3.83;;
920;SDS011;447;51.332;6.778;2023-11-21T05:05:42;5.80;;;4.17;;
920;SDS011;447;51.332;6.778;2023-11-21T05:08:08;4.57;;;3.93;;
920;SDS011;447;51.332;6.778;2023-11-21T05:10:38;5.63;;;3.90;;
920;SDS011;447;51.332;6.778;2023-11-21T05:13:06;4.00;;;3.63;;
920;SDS011;447;51.332;6.778;2023-11-21T05:15:36;4.60;;;4.20;;
920;SDS011;447;51.332;6.778;2023-11-21T05:18:03;4.67;;;4.10;;
920;SDS011;447;51.332;6.778;2023-11-21T05:20:34;4.87;;;4.23;;
920;SDS011;447;51.332;6.778;2023-11-21T05:23:05;5.20;;;3.97;;
920;SDS011;447;51.332;6.778;2023-11-21T05:25:30;6.27;;;4.10;;
920;SDS011;447;51.332;6.778;2023-11-21T05:27:57;5.83;;;4.20;;
920;SDS011;447;51.332;6.778;2023-11-21T05:30:26;4.67;;;4.03;;
920;SDS011;447;51.332;6.778;2023-11-21T05:32:56;4.67;;;3.73;;
920;SDS011;447;51.332;6.778;2023-11-21T05:35:25;6.57;;;4.33;;
920;SDS011;447;51.332;6.778;2023-11-21T05:37:55;5.57;;;4.20;;
920;SDS011;447;51.332;6.778;2023-11-21T05:40:21;4.30;;;3.90;;
920;SDS011;447;51.332;6.778;2023-11-21T05:42:50;5.50;;;4.63;;
920;SDS011;447;51.332;6.778;2023-11-21T05:45:17;7.00;;;3.77;;
920;SDS011;447;51.332;6.778;2023-11-21T05:47:45;6.80;;;4.57;;
920;SDS011;447;51.332;6.778;2023-11-21T05:50:14;5.30;;;4.40;;
920;SDS011;447;51.332;6.778;2023-11-21T05:52:44;4.43;;;4.03;;
920;SDS011;447;51.332;6.778;2023-11-21T05:55:11;8.03;;;4.30;;
920;SDS011;447;51.332;6.778;2023-11-21T05:57:38;6.32;;;4.38;;
920;SDS011;447;51.332;6.778;2023-11-21T06:00:09;5.50;;;4.47;;
920;SDS011;447;51.332;6.778;2023-11-21T06:02:43;4.40;;;4.00;;
920;SDS011;447;51.332;6.778;2023-11-21T06:05:12;10.60;;;4.80;;
920;SDS011;447;51.332;6.778;2023-11-21T06:07:38;4.93;;;4.47;;
920;SDS011;447;51.332;6.778;2023-11-21T06:10:05;4.53;;;3.97;;
920;SDS011;447;51.332;6.778;2023-11-21T06:12:38;4.90;;;4.50;;
920;SDS011;447;51.332;6.778;2023-11-21T06:15:05;4.90;;;4.40;;
920;SDS011;447;51.332;6.778;2023-11-21T06:17:36;4.37;;;3.97;;
920;SDS011;447;51.332;6.778;2023-11-21T06:20:03;6.70;;;4.47;;
920;SDS011;447;51.332;6.778;2023-11-21T06:22:37;5.67;;;4.33;;
920;SDS011;447;51.332;6.778;2023-11-21T06:25:07;5.60;;;4.20;;
920;SDS011;447;51.332;6.778;2023-11-21T06:27:35;4.10;;;3.67;;
920;SDS011;447;51.332;6.778;2023-11-21T06:30:07;4.30;;;3.90;;
920;SDS011;447;51.332;6.778;2023-11-21T06:32:35;5.20;;;4.50;;
920;SDS011;447;51.332;6.778;2023-11-21T06:35:04;9.00;;;4.93;;
920;SDS011;447;51.332;6.778;2023-11-21T06:37:31;5.93;;;4.80;;
920;SDS011;447;51.332;6.778;2023-11-21T06:39:58;6.00;;;4.47;;
920;SDS011;447;51.332;6.778;2023-11-21T06:42:25;4.03;;;3.67;;
920;SDS011;447;51.332;6.778;2023-11-21T06:44:57;5.20;;;4.53;;
920;SDS011;447;51.332;6.778;2023-11-21T06:47:23;5.47;;;4.67;;
920;SDS011;447;51.332;6.778;2023-11-21T06:49:54;5.50;;;4.80;;
920;SDS011;447;51.332;6.778;2023-11-21T06:52:21;8.23;;;5.20;;
920;SDS011;447;51.332;6.778;2023-11-21T06:54:47;5.23;;;4.53;;
920;SDS011;447;51.332;6.778;2023-11-21T06:57:15;7.53;;;5.57;;
920;SDS011;447;51.332;6.778;2023-11-21T06:59:41;7.20;;;6.10;;
920;SDS011;447;51.332;6.778;2023-11-21T07:02:07;7.83;;;5.80;;
920;SDS011;447;51.332;6.778;2023-11-21T07:04:35;9.77;;;6.13;;
920;SDS011;447;51.332;6.778;2023-11-21T07:07:04;7.38;;;5.95;;
920;SDS011;447;51.332;6.778;2023-11-21T07:09:32;7.90;;;5.82;;
920;SDS011;447;51.332;6.778;2023-11-21T07:12:05;6.33;;;5.33;;
920;SDS011;447;51.332;6.778;2023-11-21T07:14:35;8.83;;;5.90;;
920;SDS011;447;51.332;6.778;2023-11-21T07:17:05;9.67;;;5.93;;
920;SDS011;447;51.332;6.778;2023-11-21T07:19:32;7.43;;;6.07;;
920;SDS011;447;51.332;6.778;2023-11-21T07:21:57;9.20;;;6.33;;
920;SDS011;447;51.332;6.778;2023-11-21T07:24:23;9.93;;;6.07;;
920;SDS011;447;51.332;6.778;2023-11-21T07:26:52;8.45;;;6.53;;
920;SDS011;447;51.332;6.778;2023-11-21T07:29:23;9.77;;;6.57;;
920;SDS011;447;51.332;6.778;2023-11-21T07:31:55;7.83;;;6.13;;
920;SDS011;447;51.332;6.778;2023-11-21T07:34:21;10.30;;;7.00;;
920;SDS011;447;51.332;6.778;2023-11-21T07:36:47;10.30;;;7.10;;
920;SDS011;447;51.332;6.778;2023-11-21T07:39:14;8.10;;;6.47;;
920;SDS011;447;51.332;6.778;2023-11-21T07:41:41;7.70;;;5.97;;
920;SDS011;447;51.332;6.778;2023-11-21T07:44:14;11.37;;;7.17;;
920;SDS011;447;51.332;6.778;2023-11-21T07:46:41;10.13;;;7.33;;
920;SDS011;447;51.332;6.778;2023-11-21T07:49:07;10.38;;;7.00;;
920;SDS011;447;51.332;6.778;2023-11-21T07:51:36;17.63;;;8.25;;
920;SDS011;447;51.332;6.778;2023-11-21T07:54:02;10.83;;;7.43;;
920;SDS011;447;51.332;6.778;2023-11-21T07:56:28;14.20;;;7.53;;
920;SDS011;447;51.332;6.778;2023-11-21T07:58:55;14.07;;;9.03;;
920;SDS011;447;51.332;6.778;2023-11-21T08:01:23;11.90;;;8.10;;
920;SDS011;447;51.332;6.778;2023-11-21T08:03:50;15.17;;;8.10;;
920;SDS011;447;51.332;6.778;2023-11-21T08:06:20;9.70;;;7.37;;
920;SDS011;447;51.332;6.778;2023-11-21T08:08:49;13.10;;;8.63;;
920;SDS011;447;51.332;6.778;2023-11-21T08:11:14;14.53;;;7.73;;
920;SDS011;447;51.332;6.778;2023-11-21T08:13:44;12.93;;;7.88;;
920;SDS011;447;51.332;6.778;2023-11-21T08:16:13;12.80;;;8.70;;
920;SDS011;447;51.332;6.778;2023-11-21T08:18:39;12.85;;;8.15;;
920;SDS011;447;51.332;6.778;2023-11-21T08:21:09;12.68;;;7.68;;
920;SDS011;447;51.332;6.778;2023-11-21T08:23:38;12.07;;;7.80;;
920;SDS011;447;51.332;6.778;2023-11-21T08:26:06;16.83;;;7.87;;
920;SDS011;447;51.332;6.778;2023-11-21T08:28:37;16.60;;;10.33;;
920;SDS011;447;51.332;6.778;2023-11-21T08:31:07;19.67;;;10.60;;
920;SDS011;447;51.332;6.778;2023-11-21T08:33:38;12.07;;;8.60;;
920;SDS011;447;51.332;6.778;2023-11-21T08:36:07;15.97;;;9.27;;
920;SDS011;447;51.332;6.778;2023-11-21T08:38:35;14.90;;;9.60;;
920;SDS011;447;51.332;6.778;2023-11-21T08:41:07;13.77;;;9.27;;
920;SDS011;447;51.332;6.778;2023-11-21T08:43:34;10.97;;;8.17;;
920;SDS011;447;51.332;6.778;2023-11-21T08:46:03;16.17;;;8.10;;
920;SDS011;447;51.332;6.778;2023-11-21T08:48:29;11.33;;;7.80;;
920;SDS011;447;51.332;6.778;2023-11-21T08:50:55;11.80;;;8.50;;
920;SDS011;447;51.332;6.778;2023-11-21T08:53:24;13.13;;;8.43;;
920;SDS011;447;51.332;6.778;2023-11-21T08:55:52;12.35;;;8.55;;
920;SDS011;447;51.332;6.778;2023-11-21T08:58:19;16.20;;;8.30;;
920;SDS011;447;51.332;6.778;2023-11-21T09:00:45;16.00;;;8.60;;
920;SDS011;447;51.332;6.778;2023-11-21T09:03:12;14.17;;;8.40;;
920;SDS011;447;51.332;6.778;2023-11-21T09:05:41;11.10;;;8.47;;
920;SDS011;447;51.332;6.778;2023-11-21T09:08:10;13.97;;;9.30;;
920;SDS011;447;51.332;6.778;2023-11-21T09:10:36;14.07;;;8.60;;
920;SDS011;447;51.332;6.778;2023-11-21T09:13:02;17.23;;;8.60;;
920;SDS011;447;51.332;6.778;2023-11-21T09:15:28;16.87;;;9.17;;
920;SDS011;447;51.332;6.778;2023-11-21T09:17:55;13.87;;;8.10;;
920;SDS011;447;51.332;6.778;2023-11-21T09:20:21;16.20;;;9.70;;
920;SDS011;447;51.332;6.778;2023-11-21T09:22:49;14.20;;;8.77;;
920;SDS011;447;51.332;6.778;2023-11-21T09:25:15;14.97;;;9.50;;
920;SDS011;447;51.332;6.778;2023-11-21T09:27:42;15.57;;;10.37;;
920;SDS011;447;51.332;6.778;2023-11-21T09:30:08;13.10;;;8.60;;
920;SDS011;447;51.332;6.778;2023-11-21T09:32:39;16.70;;;9.68;;
920;SDS011;447;51.332;6.778;2023-11-21T09:35:10;15.43;;;10.33;;
920;SDS011;447;51.332;6.778;2023-11-21T09:37:37;16.97;;;9.90;;
920;SDS011;447;51.332;6.778;2023-11-21T09:40:06;13.10;;;8.27;;
920;SDS011;447;51.332;6.778;2023-11-21T09:43:03;16.02;;;8.73;;
920;SDS011;447;51.332;6.778;2023-11-21T09:45:36;14.30;;;8.93;;
920;SDS011;447;51.332;6.778;2023-11-21T09:48:04;11.90;;;8.63;;
920;SDS011;447;51.332;6.778;2023-11-21T09:50:31;17.40;;;10.43;;
920;SDS011;447;51.332;6.778;2023-11-21T09:53:09;15.10;;;9.90;;
920;SDS011;447;51.332;6.778;2023-11-21T09:55:48;14.67;;;9.03;;
920;SDS011;447;51.332;6.778;2023-11-21T09:58:17;12.90;;;9.07;;
920;SDS011;447;51.332;6.778;2023-11-21T10:00:52;13.32;;;9.95;;
920;SDS011;447;51.332;6.778;2023-11-21T10:03:23;14.00;;;9.50;;
920;SDS011;447;51.332;6.778;2023-11-21T10:05:52;14.03;;;9.63;;
920;SDS011;447;51.332;6.778;2023-11-21T10:08:26;17.60;;;10.50;;
920;SDS011;447;51.332;6.778;2023-11-21T10:10:55;16.07;;;10.10;;
920;SDS011;447;51.332;6.778;2023-11-21T10:13:28;14.00;;;9.30;;
920;SDS011;447;51.332;6.778;2023-11-21T10:15:56;16.90;;;10.00;;
920;SDS011;447;51.332;6.778;2023-11-21T10:18:23;15.10;;;9.50;;
920;SDS011;447;51.332;6.778;2023-11-21T10:20:51;26.02;;;9.93;;
920;SDS011;447;51.332;6.778;2023-11-21T10:23:19;16.40;;;11.03;;
920;SDS011;447;51.332;6.778;2023-11-21T10:25:46;19.43;;;11.43;;
920;SDS011;447;51.332;6.778;2023-11-21T10:28:16;20.20;;;11.27;;
920;SDS011;447;51.332;6.778;2023-11-21T10:30:42;13.20;;;9.70;;
920;SDS011;447;51.332;6.778;2023-11-21T10:33:09;19.17;;;11.27;;
920;SDS011;447;51.332;6.778;2023-11-21T10:38:19;15.07;;;9.90;;
920;SDS011;447;51.332;6.778;2023-11-21T10:40:48;19.80;;;11.87;;
920;SDS011;447;51.332;6.778;2023-11-21T10:43:17;15.60;;;9.83;;
920;SDS011;447;51.332;6.778;2023-11-21T10:45:46;17.77;;;10.37;;
920;SDS011;447;51.332;6.778;2023-11-21T10:48:13;19.23;;;10.73;;
920;SDS011;447;51.332;6.778;2023-11-21T10:50:46;17.40;;;10.00;;
920;SDS011;447;51.332;6.778;2023-11-21T10:53:12;22.23;;;12.63;;
920;SDS011;447;51.332;6.778;2023-11-21T10:55:38;17.63;;;11.18;;
920;SDS011;447;51.332;6.778;2023-11-21T10:58:04;17.27;;;11.67;;
920;SDS011;447;51.332;6.778;2023-11-21T11:00:32;19.70;;;11.70;;
920;SDS011;447;51.332;6.778;2023-11-21T11:02:59;23.30;;;11.53;;
920;SDS011;447;51.332;6.778;2023-11-21T11:05:26;21.88;;;10.90;;
920;SDS011;447;51.332;6.778;2023-11-21T11:08:06;19.92;;;11.88;;
920;SDS011;447;51.332;6.778;2023-11-21T11:10:36;18.58;;;11.70;;
920;SDS011;447;51.332;6.778;2023-11-21T11:13:02;19.77;;;12.18;;
920;SDS011;447;51.332;6.778;2023-11-21T11:15:29;17.97;;;9.97;;
920;SDS011;447;51.332;6.778;2023-11-21T11:18:00;15.00;;;10.57;;
920;SDS011;447;51.332;6.778;2023-11-21T11:20:35;15.20;;;10.20;;
920;SDS011;447;51.332;6.778;2023-11-21T11:25:55;17.40;;;10.60;;
920;SDS011;447;51.332;6.778;2023-11-21T11:28:47;19.20;;;11.65;;
920;SDS011;447;51.332;6.778;2023-11-21T11:36:54;19.03;;;12.03;;
920;SDS011;447;51.332;6.778;2023-11-21T11:39:35;17.93;;;12.40;;
920;SDS011;447;51.332;6.778;2023-11-21T11:42:14;20.73;;;12.17;;
920;SDS011;447;51.332;6.778;2023-11-21T11:52:41;22.50;;;12.00;;
920;SDS011;447;51.332;6.778;2023-11-21T11:55:15;17.73;;;11.65;;
920;SDS011;447;51.332;6.778;2023-11-21T11:58:09;16.57;;;11.37;;
920;SDS011;447;51.332;6.778;2023-11-21T12:03:31;23.67;;;12.90;;
920;SDS011;447;51.332;6.778;2023-11-21T12:05:58;20.65;;;12.25;;
920;SDS011;447;51.332;6.778;2023-11-21T12:08:26;23.40;;;12.97;;
920;SDS011;447;51.332;6.778;2023-11-21T12:10:57;22.50;;;13.13;;
920;SDS011;447;51.332;6.778;2023-11-21T12:13:24;19.93;;;13.07;;
920;SDS011;447;51.332;6.778;2023-11-21T12:15:49;22.13;;;12.37;;
920;SDS011;447;51.332;6.778;2023-11-21T12:18:20;20.93;;;13.23;;
920;SDS011;447;51.332;6.778;2023-11-21T12:20:49;26.10;;;13.73;;
920;SDS011;447;51.332;6.778;2023-11-21T12:23:18;27.60;;;14.13;;
920;SDS011;447;51.332;6.778;2023-11-21T12:25:46;28.60;;;13.60;;
920;SDS011;447;51.332;6.778;2023-11-21T12:28:12;25.60;;;13.87;;
920;SDS011;447;51.332;6.778;2023-11-21T12:30:38;22.80;;;12.70;;
920;SDS011;447;51.332;6.778;2023-11-21T12:33:05;23.00;;;13.33;;
920;SDS011;447;51.332;6.778;2023-11-21T12:35:34;22.70;;;13.83;;
920;SDS011;447;51.332;6.778;2023-11-21T12:38:01;18.33;;;12.40;;
920;SDS011;447;51.332;6.778;2023-11-21T12:40:28;21.80;;;13.17;;
920;SDS011;447;51.332;6.778;2023-11-21T12:42:56;24.23;;;14.20;;
920;SDS011;447;51.332;6.778;2023-11-21T12:45:25;22.60;;;14.70;;
920;SDS011;447;51.332;6.778;2023-11-21T12:47:59;28.23;;;14.57;;
920;SDS011;447;51.332;6.778;2023-11-21T12:50:33;24.10;;;14.50;;
920;SDS011;447;51.332;6.778;2023-11-21T12:53:05;21.70;;;14.10;;
920;SDS011;447;51.332;6.778;2023-11-21T12:55:32;23.97;;;14.13;;
920;SDS011;447;51.332;6.778;2023-11-21T12:58:03;27.33;;;14.37;;
920;SDS011;447;51.332;6.778;2023-11-21T13:00:47;24.63;;;13.50;;
920;SDS011;447;51.332;6.778;2023-11-21T13:03:15;21.57;;;15.17;;
920;SDS011;447;51.332;6.778;2023-11-21T13:05:49;22.17;;;13.77;;
920;SDS011;447;51.332;6.778;2023-11-21T13:08:16;26.70;;;15.40;;
920;SDS011;447;51.332;6.778;2023-11-21T13:10:46;24.33;;;15.60;;
920;SDS011;447;51.332;6.778;2023-11-21T13:13:23;29.93;;;15.80;;
920;SDS011;447;51.332;6.778;2023-11-21T13:15:57;28.80;;;16.90;;
920;SDS011;447;51.332;6.778;2023-11-21T13:18:31;27.07;;;16.00;;
920;SDS011;447;51.332;6.778;2023-11-21T13:21:01;31.10;;;18.55;;
920;SDS011;447;51.332;6.778;2023-11-21T13:23:35;31.80;;;18.73;;
920;SDS011;447;51.332;6.778;2023-11-21T13:26:07;31.40;;;17.97;;
920;SDS011;447;51.332;6.778;2023-11-21T13:28:34;42.03;;;22.63;;
920;SDS011;447;51.332;6.778;2023-11-21T13:31:03;32.20;;;19.77;;
920;SDS011;447;51.332;6.778;2023-11-21T13:33:49;37.80;;;20.70;;
920;SDS011;447;51.332;6.778;2023-11-21T13:36:24;41.30;;;23.00;;
920;SDS011;447;51.332;6.778;2023-11-21T13:38:50;39.03;;;23.80;;
920;SDS011;447;51.332;6.778;2023-11-21T13:41:20;39.43;;;23.43;;
920;SDS011;447;51.332;6.778;2023-11-21T13:43:53;38.53;;;23.47;;
920;SDS011;447;51.332;6.778;2023-11-21T13:46:29;42.97;;;24.73;;
920;SDS011;447;51.332;6.778;2023-11-21T13:49:02;45.27;;;25.30;;
920;SDS011;447;51.332;6.778;2023-11-21T13:51:28;41.73;;;25.87;;
920;SDS011;447;51.332;6.778;2023-11-21T13:54:03;38.07;;;23.70;;
920;SDS011;447;51.332;6.778;2023-11-21T13:56:37;39.13;;;24.23;;
920;SDS011;447;51.332;6.778;2023-11-21T13:59:04;38.88;;;24.75;;
920;SDS011;447;51.332;6.778;2023-11-21T14:01:46;34.70;;;22.90;;
920;SDS011;447;51.332;6.778;2023-11-21T14:04:21;37.40;;;22.57;;
920;SDS011;447;51.332;6.778;2023-11-21T14:07:15;33.47;;;20.58;;
920;SDS011;447;51.332;6.778;2023-11-21T14:10:01;35.03;;;20.43;;
920;SDS011;447;51.332;6.778;2023-11-21T14:12:29;28.70;;;18.77;;
920;SDS011;447;51.332;6.778;2023-11-21T14:14:59;32.83;;;21.30;;
920;SDS011;447;51.332;6.778;2023-11-21T14:17:28;38.00;;;22.35;;
920;SDS011;447;51.332;6.778;2023-11-21T14:19:54;29.87;;;20.30;;
920;SDS011;447;51.332;6.778;2023-11-21T14:22:21;30.63;;;19.67;;
920;SDS011;447;51.332;6.778;2023-11-21T14:24:47;27.03;;;18.30;;
920;SDS011;447;51.332;6.778;2023-11-21T14:27:18;31.70;;;21.00;;
920;SDS011;447;51.332;6.778;2023-11-21T14:29:47;32.03;;;19.10;;
920;SDS011;447;51.332;6.778;2023-11-21T14:32:14;30.07;;;19.80;;
920;SDS011;447;51.332;6.778;2023-11-21T14:34:41;26.73;;;18.05;;
920;SDS011;447;51.332;6.778;2023-11-21T14:37:14;27.25;;;18.75;;
920;SDS011;447;51.332;6.778;2023-11-21T14:39:42;25.03;;;18.10;;
920;SDS011;447;51.332;6.778;2023-11-21T14:42:15;29.60;;;17.67;;
920;SDS011;447;51.332;6.778;2023-11-21T14:44:41;22.23;;;14.80;;
920;SDS011;447;51.332;6.778;2023-11-21T14:47:10;25.50;;;15.67;;
920;SDS011;447;51.332;6.778;2023-11-21T14:49:42;24.90;;;15.50;;
920;SDS011;447;51.332;6.778;2023-11-21T14:52:21;24.17;;;15.90;;
920;SDS011;447;51.332;6.778;2023-11-21T14:54:57;26.20;;;16.50;;
920;SDS011;447;51.332;6.778;2023-11-21T14:57:45;24.93;;;16.33;;
920;SDS011;447;51.332;6.778;2023-11-21T15:00:17;23.50;;;16.05;;
920;SDS011;447;51.332;6.778;2023-11-21T15:03:04;20.10;;;14.40;;
920;SDS011;447;51.332;6.778;2023-11-21T15:05:32;22.93;;;14.70;;
920;SDS011;447;51.332;6.778;2023-11-21T15:08:05;20.97;;;13.83;;
920;SDS011;447;51.332;6.778;2023-11-21T15:10:45;20.37;;;13.50;;
920;SDS011;447;51.332;6.778;2023-11-21T15:13:15;18.90;;;13.00;;
920;SDS011;447;51.332;6.778;2023-11-21T15:15:44;20.00;;;13.97;;
920;SDS011;447;51.332;6.778;2023-11-21T15:18:12;20.57;;;14.17;;
920;SDS011;447;51.332;6.778;2023-11-21T15:20:41;21.53;;;14.00;;
920;SDS011;447;51.332;6.778;2023-11-21T15:23:08;21.13;;;14.13;;
920;SDS011;447;51.332;6.778;2023-11-21T15:25:39;19.27;;;13.90;;
920;SDS011;447;51.332;6.778;2023-11-21T15:28:07;17.88;;;12.75;;
920;SDS011;447;51.332;6.778;2023-11-21T15:30:33;16.90;;;13.30;;
920;SDS011;447;51.332;6.778;2023-11-21T15:33:02;19.50;;;13.07;;
920;SDS011;447;51.332;6.778;2023-11-21T15:35:31;18.63;;;12.93;;
920;SDS011;447;51.332;6.778;2023-11-21T15:38:03;18.83;;;12.00;;
920;SDS011;447;51.332;6.778;2023-11-21T15:40:33;15.60;;;12.20;;
920;SDS011;447;51.332;6.778;2023-11-21T15:43:02;17.10;;;12.20;;
920;SDS011;447;51.332;6.778;2023-11-21T15:45:32;15.10;;;11.00;;
920;SDS011;447;51.332;6.778;2023-11-21T15:47:58;15.40;;;11.53;;
920;SDS011;447;51.332;6.778;2023-11-21T15:50:29;18.43;;;12.17;;
920;SDS011;447;51.332;6.778;2023-11-21T15:52:57;14.10;;;11.27;;
920;SDS011;447;51.332;6.778;2023-11-21T15:55:26;15.90;;;12.10;;
920;SDS011;447;51.332;6.778;2023-11-21T15:58:01;13.00;;;10.90;;
920;SDS011;447;51.332;6.778;2023-11-21T16:00:30;14.70;;;10.43;;
920;SDS011;447;51.332;6.778;2023-11-21T16:02:58;14.40;;;11.07;;
920;SDS011;447;51.332;6.778;2023-11-21T16:05:27;13.37;;;9.93;;